sensor_id;sensor_type;location;lat;lon;timestamp;pressure;altitude;pressure_sealevel;temperature;humidity
21361;BME280;10839;43.206;23.550;2023-03-20T00:00:49;97396.91;;;9.19;78.70
21361;BME280;10839;43.206;23.550;2023-03-20T00:03:16;97393.25;;;9.12;78.57
21361;BME280;10839;43.206;23.550;2023-03-20T00:05:43;97393.16;;;9.05;79.39
21361;BME280;10839;43.206;23.550;2023-03-20T00:08:09;97394.88;;;9.21;78.25
21361;BME280;10839;43.206;23.550;2023-03-20T00:10:43;97383.78;;;9.24;77.77
21361;BME280;10839;43.206;23.550;2023-03-20T00:13:14;97396.69;;;9.06;79.36
21361;BME280;10839;43.206;23.550;2023-03-20T00:15:45;97387.59;;;9.30;76.88
21361;BME280;10839;43.206;23.550;2023-03-20T00:18:19;97388.41;;;9.30;77.79
21361;BME280;10839;43.206;23.550;2023-03-20T00:20:51;97387.81;;;9.20;77.91
21361;BME280;10839;43.206;23.550;2023-03-20T00:23:18;97371.59;;;9.36;76.60
21361;BME280;10839;43.206;23.550;2023-03-20T00:25:45;97373.38;;;9.58;74.03
21361;BME280;10839;43.206;23.550;2023-03-20T00:28:36;97369.69;;;9.22;77.15
21361;BME280;10839;43.206;23.550;2023-03-20T00:31:23;97370.28;;;9.32;76.84
21361;BME280;10839;43.206;23.550;2023-03-20T00:33:56;97367.97;;;9.29;77.00
21361;BME280;10839;43.206;23.550;2023-03-20T00:36:23;97371.59;;;9.36;77.24
21361;BME280;10839;43.206;23.550;2023-03-20T00:38:50;97367.28;;;9.27;77.38
21361;BME280;10839;43.206;23.550;2023-03-20T00:44:00;97369.69;;;9.22;78.56
21361;BME280;10839;43.206;23.550;2023-03-20T00:46:28;97364.09;;;9.09;79.87
21361;BME280;10839;43.206;23.550;2023-03-20T00:48:57;97365.28;;;9.29;79.11
21361;BME280;10839;43.206;23.550;2023-03-20T00:51:23;97367.81;;;9.08;79.63
21361;BME280;10839;43.206;23.550;2023-03-20T00:53:50;97360.91;;;8.91;81.40
21361;BME280;10839;43.206;23.550;2023-03-20T00:56:40;97365.13;;;9.08;80.38
21361;BME280;10839;43.206;23.550;2023-03-20T00:59:15;97366.72;;;9.17;79.75
21361;BME280;10839;43.206;23.550;2023-03-20T01:01:42;97363.28;;;8.86;81.84
21361;BME280;10839;43.206;23.550;2023-03-20T01:04:15;97364.47;;;9.06;80.55
21361;BME280;10839;43.206;23.550;2023-03-20T01:06:43;97363.38;;;9.15;79.87
21361;BME280;10839;43.206;23.550;2023-03-20T01:09:09;97362.31;;;8.79;80.73
21361;BME280;10839;43.206;23.550;2023-03-20T01:11:36;97364.00;;;8.80;80.15
21361;BME280;10839;43.206;23.550;2023-03-20T01:14:03;97359.22;;;8.90;79.59
21361;BME280;10839;43.206;23.550;2023-03-20T01:16:31;97364.94;;;8.87;79.22
21361;BME280;10839;43.206;23.550;2023-03-20T01:18:57;97366.03;;;8.78;80.16
21361;BME280;10839;43.206;23.550;2023-03-20T01:21:24;97352.19;;;8.89;78.72
21361;BME280;10839;43.206;23.550;2023-03-20T01:23:51;97349.44;;;8.97;78.01
21361;BME280;10839;43.206;23.550;2023-03-20T01:26:31;97353.16;;;8.96;72.62
21361;BME280;10839;43.206;23.550;2023-03-20T01:28:59;97348.31;;;8.91;62.11
21361;BME280;10839;43.206;23.550;2023-03-20T01:31:27;97349.44;;;8.97;62.21
21361;BME280;10839;43.206;23.550;2023-03-20T01:33:53;97345.69;;;8.83;62.58
21361;BME280;10839;43.206;23.550;2023-03-20T01:36:21;97364.94;;;8.87;62.29
21361;BME280;10839;43.206;23.550;2023-03-20T01:38:56;97357.25;;;8.84;61.16
21361;BME280;10839;43.206;23.550;2023-03-20T01:41:28;97351.09;;;8.53;59.33
21361;BME280;10839;43.206;23.550;2023-03-20T01:43:54;97351.84;;;8.69;57.90
21361;BME280;10839;43.206;23.550;2023-03-20T01:46:27;97345.16;;;8.88;58.73
21361;BME280;10839;43.206;23.550;2023-03-20T01:51:55;97351.59;;;8.79;55.87
21361;BME280;10839;43.206;23.550;2023-03-20T01:54:34;97346.94;;;8.95;54.96
21361;BME280;10839;43.206;23.550;2023-03-20T01:57:19;97345.03;;;8.81;54.46
21361;BME280;10839;43.206;23.550;2023-03-20T01:59:57;97346.09;;;8.95;54.38
21361;BME280;10839;43.206;23.550;2023-03-20T02:02:28;97352.81;;;9.14;53.71
21361;BME280;10839;43.206;23.550;2023-03-20T02:04:59;97354.16;;;9.32;56.37
21361;BME280;10839;43.206;23.550;2023-03-20T02:07:27;97349.66;;;9.10;58.59
21361;BME280;10839;43.206;23.550;2023-03-20T02:10:01;97358.94;;;9.22;60.33
21361;BME280;10839;43.206;23.550;2023-03-20T02:12:39;97361.25;;;9.25;61.64
21361;BME280;10839;43.206;23.550;2023-03-20T02:15:10;97347.78;;;8.96;61.22
21361;BME280;10839;43.206;23.550;2023-03-20T02:18:01;97352.28;;;9.18;57.94
21361;BME280;10839;43.206;23.550;2023-03-20T02:29:29;97349.31;;;9.13;53.15
21361;BME280;10839;43.206;23.550;2023-03-20T02:46:25;97352.63;;;8.47;54.95
21361;BME280;10839;43.206;23.550;2023-03-20T02:51:32;97356.06;;;8.64;53.92
21361;BME280;10839;43.206;23.550;2023-03-20T02:54:27;97348.91;;;8.26;54.81
21361;BME280;10839;43.206;23.550;2023-03-20T02:57:12;97343.13;;;8.45;54.81
21361;BME280;10839;43.206;23.550;2023-03-20T02:59:44;97347.34;;;8.62;54.42
21361;BME280;10839;43.206;23.550;2023-03-20T03:02:32;97339.72;;;8.51;54.77
21361;BME280;10839;43.206;23.550;2023-03-20T03:05:05;97335.09;;;8.37;55.41
21361;BME280;10839;43.206;23.550;2023-03-20T03:07:34;97326.53;;;8.41;55.96
21361;BME280;10839;43.206;23.550;2023-03-20T03:10:10;97343.06;;;8.53;56.07
21361;BME280;10839;43.206;23.550;2023-03-20T03:12:39;97341.31;;;8.37;56.66
21361;BME280;10839;43.206;23.550;2023-03-20T03:15:30;97344.88;;;8.30;57.09
21361;BME280;10839;43.206;23.550;2023-03-20T03:17:58;97342.75;;;8.48;55.89
21361;BME280;10839;43.206;23.550;2023-03-20T03:20:29;97338.19;;;8.26;57.14
21361;BME280;10839;43.206;23.550;2023-03-20T03:22:58;97342.56;;;8.27;58.01
21361;BME280;10839;43.206;23.550;2023-03-20T03:25:28;97345.69;;;8.30;58.09
21361;BME280;10839;43.206;23.550;2023-03-20T03:28:39;97343.97;;;8.07;58.10
21361;BME280;10839;43.206;23.550;2023-03-20T03:31:12;97335.56;;;8.10;59.22
21361;BME280;10839;43.206;23.550;2023-03-20T03:33:47;97326.81;;;8.16;60.86
21361;BME280;10839;43.206;23.550;2023-03-20T03:38:58;97329.63;;;7.92;62.92
21361;BME280;10839;43.206;23.550;2023-03-20T03:41:52;97332.75;;;8.03;59.23
21361;BME280;10839;43.206;23.550;2023-03-20T03:44:34;97332.94;;;7.94;58.47
21361;BME280;10839;43.206;23.550;2023-03-20T03:49:37;97339.50;;;8.30;56.10
21361;BME280;10839;43.206;23.550;2023-03-20T03:52:11;97326.41;;;8.35;55.42
21361;BME280;10839;43.206;23.550;2023-03-20T03:54:42;97329.53;;;8.08;56.79
21361;BME280;10839;43.206;23.550;2023-03-20T03:57:43;97331.81;;;8.19;56.54
21361;BME280;10839;43.206;23.550;2023-03-20T04:00:18;97337.81;;;8.29;56.51
21361;BME280;10839;43.206;23.550;2023-03-20T04:02:47;97335.66;;;7.86;58.21
21361;BME280;10839;43.206;23.550;2023-03-20T04:05:15;97328.06;;;7.97;57.90
21361;BME280;10839;43.206;23.550;2023-03-20T04:07:45;97343.91;;;8.15;57.88
21361;BME280;10839;43.206;23.550;2023-03-20T04:10:12;97339.34;;;7.85;58.52
21361;BME280;10839;43.206;23.550;2023-03-20T04:12:42;97323.59;;;7.90;58.84
21361;BME280;10839;43.206;23.550;2023-03-20T04:15:13;97338.94;;;8.04;58.49
21361;BME280;10839;43.206;23.550;2023-03-20T04:17:40;97320.72;;;7.99;58.54
21361;BME280;10839;43.206;23.550;2023-03-20T04:20:09;97332.63;;;7.97;59.00
21361;BME280;10839;43.206;23.550;2023-03-20T04:22:35;97330.53;;;8.15;58.45
21361;BME280;10839;43.206;23.550;2023-03-20T04:25:08;97323.13;;;8.25;57.08
21361;BME280;10839;43.206;23.550;2023-03-20T04:27:35;97319.19;;;8.05;55.84
21361;BME280;10839;43.206;23.550;2023-03-20T04:30:09;97340.75;;;8.50;55.09
21361;BME280;10839;43.206;23.550;2023-03-20T04:32:54;97344.34;;;8.57;56.48
21361;BME280;10839;43.206;23.550;2023-03-20T04:35:50;97347.88;;;8.35;57.91
21361;BME280;10839;43.206;23.550;2023-03-20T04:38:17;97349.78;;;8.49;58.93
21361;BME280;10839;43.206;23.550;2023-03-20T04:40:44;97357.56;;;8.89;60.45
21361;BME280;10839;43.206;23.550;2023-03-20T04:43:13;97360.31;;;8.81;61.41
21361;BME280;10839;43.206;23.550;2023-03-20T04:45:39;97357.94;;;9.23;60.85
21361;BME280;10839;43.206;23.550;2023-03-20T04:48:07;97351.81;;;9.66;60.79
21361;BME280;10839;43.206;23.550;2023-03-20T04:50:33;97354.97;;;9.99;59.73
21361;BME280;10839;43.206;23.550;2023-03-20T04:53:01;97353.78;;;10.16;59.55
21361;BME280;10839;43.206;23.550;2023-03-20T04:55:28;97364.63;;;10.94;58.05
21361;BME280;10839;43.206;23.550;2023-03-20T04:57:54;97365.97;;;11.53;54.97
21361;BME280;10839;43.206;23.550;2023-03-20T05:00:20;97369.38;;;11.89;54.56
21361;BME280;10839;43.206;23.550;2023-03-20T05:02:47;97367.81;;;12.48;52.84
21361;BME280;10839;43.206;23.550;2023-03-20T05:05:14;97364.72;;;13.25;50.40
21361;BME280;10839;43.206;23.550;2023-03-20T05:07:42;97372.41;;;13.15;50.34
21361;BME280;10839;43.206;23.550;2023-03-20T05:10:14;97380.53;;;13.34;50.50
21361;BME280;10839;43.206;23.550;2023-03-20T05:13:06;97386.78;;;13.22;50.46
21361;BME280;10839;43.206;23.550;2023-03-20T05:15:35;97389.97;;;12.84;50.65
21361;BME280;10839;43.206;23.550;2023-03-20T05:18:19;97402.09;;;12.54;52.14
21361;BME280;10839;43.206;23.550;2023-03-20T05:20:54;97405.22;;;12.51;52.86
21361;BME280;10839;43.206;23.550;2023-03-20T05:23:52;97399.53;;;12.80;53.37
21361;BME280;10839;43.206;23.550;2023-03-20T05:26:18;97414.81;;;12.60;55.00
21361;BME280;10839;43.206;23.550;2023-03-20T05:29:03;97403.81;;;13.09;54.57
21361;BME280;10839;43.206;23.550;2023-03-20T05:31:49;97398.44;;;13.29;53.74
21361;BME280;10839;43.206;23.550;2023-03-20T05:34:34;97404.28;;;13.39;54.28
21361;BME280;10839;43.206;23.550;2023-03-20T05:37:11;97404.19;;;14.43;51.56
21361;BME280;10839;43.206;23.550;2023-03-20T05:39:56;97410.00;;;14.97;49.58
21361;BME280;10839;43.206;23.550;2023-03-20T05:42:33;97409.47;;;14.82;48.86
21361;BME280;10839;43.206;23.550;2023-03-20T05:45:18;97412.06;;;15.46;47.52
21361;BME280;10839;43.206;23.550;2023-03-20T05:48:05;97400.75;;;16.66;44.96
21361;BME280;10839;43.206;23.550;2023-03-20T05:51:07;97398.38;;;15.90;45.39
21361;BME280;10839;43.206;23.550;2023-03-20T05:53:51;97389.22;;;16.70;44.12
21361;BME280;10839;43.206;23.550;2023-03-20T05:56:43;97385.72;;;17.40;40.88
21361;BME280;10839;43.206;23.550;2023-03-20T05:59:23;97380.75;;;17.67;40.29
21361;BME280;10839;43.206;23.550;2023-03-20T06:02:16;97376.78;;;18.50;39.80
21361;BME280;10839;43.206;23.550;2023-03-20T06:04:50;97386.59;;;19.42;37.54
21361;BME280;10839;43.206;23.550;2023-03-20T06:07:26;97395.59;;;19.15;37.88
21361;BME280;10839;43.206;23.550;2023-03-20T06:09:58;97393.69;;;19.43;37.08
21361;BME280;10839;43.206;23.550;2023-03-20T06:12:25;97399.53;;;19.63;37.58
21361;BME280;10839;43.206;23.550;2023-03-20T06:14:51;97401.63;;;19.73;38.18
21361;BME280;10839;43.206;23.550;2023-03-20T06:17:17;97396.75;;;20.08;37.72
21361;BME280;10839;43.206;23.550;2023-03-20T06:19:48;97401.50;;;20.12;37.72
21361;BME280;10839;43.206;23.550;2023-03-20T06:22:14;97403.97;;;20.85;36.70
21361;BME280;10839;43.206;23.550;2023-03-20T06:24:41;97391.19;;;21.61;35.42
21361;BME280;10839;43.206;23.550;2023-03-20T06:27:07;97401.44;;;22.33;34.21
21361;BME280;10839;43.206;23.550;2023-03-20T06:29:34;97403.97;;;22.82;33.70
21361;BME280;10839;43.206;23.550;2023-03-20T06:32:14;97404.50;;;22.73;33.42
21361;BME280;10839;43.206;23.550;2023-03-20T06:34:42;97406.03;;;23.83;31.85
21361;BME280;10839;43.206;23.550;2023-03-20T06:37:08;97395.50;;;23.50;32.56
21361;BME280;10839;43.206;23.550;2023-03-20T06:39:35;97395.75;;;23.33;32.34
21361;BME280;10839;43.206;23.550;2023-03-20T06:42:01;97393.28;;;23.42;32.18
21361;BME280;10839;43.206;23.550;2023-03-20T06:44:27;97395.09;;;23.16;32.35
21361;BME280;10839;43.206;23.550;2023-03-20T06:47:02;97392.41;;;22.74;32.99
21361;BME280;10839;43.206;23.550;2023-03-20T06:49:29;97392.19;;;22.44;33.34
21361;BME280;10839;43.206;23.550;2023-03-20T06:51:55;97399.44;;;22.55;33.15
21361;BME280;10839;43.206;23.550;2023-03-20T06:54:25;97399.16;;;22.99;32.63
21361;BME280;10839;43.206;23.550;2023-03-20T06:56:52;97394.88;;;21.23;35.05
21361;BME280;10839;43.206;23.550;2023-03-20T06:59:20;97390.25;;;22.03;34.10
21361;BME280;10839;43.206;23.550;2023-03-20T07:01:46;97393.44;;;23.15;32.43
21361;BME280;10839;43.206;23.550;2023-03-20T07:04:12;97391.91;;;23.44;31.78
21361;BME280;10839;43.206;23.550;2023-03-20T07:06:46;97396.13;;;23.00;32.05
21361;BME280;10839;43.206;23.550;2023-03-20T07:09:12;97395.97;;;22.33;33.07
21361;BME280;10839;43.206;23.550;2023-03-20T07:11:38;97396.06;;;22.90;32.89
21361;BME280;10839;43.206;23.550;2023-03-20T07:14:04;97395.06;;;22.59;33.37
21361;BME280;10839;43.206;23.550;2023-03-20T07:16:49;97398.31;;;22.98;32.98
21361;BME280;10839;43.206;23.550;2023-03-20T07:19:15;97389.06;;;23.19;32.48
21361;BME280;10839;43.206;23.550;2023-03-20T07:21:45;97390.25;;;22.76;32.94
21361;BME280;10839;43.206;23.550;2023-03-20T07:24:13;97387.13;;;23.15;32.47
21361;BME280;10839;43.206;23.550;2023-03-20T07:26:39;97376.78;;;23.32;32.25
21361;BME280;10839;43.206;23.550;2023-03-20T07:29:06;97378.81;;;23.00;32.80
21361;BME280;10839;43.206;23.550;2023-03-20T07:31:34;97370.75;;;23.35;32.76
21361;BME280;10839;43.206;23.550;2023-03-20T07:34:09;97365.28;;;23.45;31.93
21361;BME280;10839;43.206;23.550;2023-03-20T07:36:35;97373.19;;;22.69;33.04
21361;BME280;10839;43.206;23.550;2023-03-20T07:39:01;97370.94;;;22.61;33.25
21361;BME280;10839;43.206;23.550;2023-03-20T07:41:29;97379.59;;;22.07;34.30
21361;BME280;10839;43.206;23.550;2023-03-20T07:44:02;97375.16;;;22.01;33.98
21361;BME280;10839;43.206;23.550;2023-03-20T07:46:47;97373.47;;;23.30;32.49
21361;BME280;10839;43.206;23.550;2023-03-20T07:49:17;97385.47;;;23.14;32.90
21361;BME280;10839;43.206;23.550;2023-03-20T07:51:46;97377.47;;;24.29;31.58
21361;BME280;10839;43.206;23.550;2023-03-20T07:54:13;97393.94;;;24.49;30.60
21361;BME280;10839;43.206;23.550;2023-03-20T07:56:40;97392.59;;;24.37;30.59
21361;BME280;10839;43.206;23.550;2023-03-20T07:59:07;97383.56;;;23.24;32.14
21361;BME280;10839;43.206;23.550;2023-03-20T08:01:34;97387.88;;;24.57;30.84
21361;BME280;10839;43.206;23.550;2023-03-20T08:03:59;97384.91;;;24.14;30.63
21361;BME280;10839;43.206;23.550;2023-03-20T08:06:26;97385.97;;;23.97;31.01
21361;BME280;10839;43.206;23.550;2023-03-20T08:08:52;97397.19;;;24.91;29.97
21361;BME280;10839;43.206;23.550;2023-03-20T08:11:18;97395.00;;;24.93;29.19
21361;BME280;10839;43.206;23.550;2023-03-20T08:13:45;97377.09;;;23.45;30.40
21361;BME280;10839;43.206;23.550;2023-03-20T08:16:11;97373.97;;;25.12;28.88
21361;BME280;10839;43.206;23.550;2023-03-20T08:18:37;97391.69;;;23.71;30.01
21361;BME280;10839;43.206;23.550;2023-03-20T08:21:03;97393.38;;;24.52;29.64
21361;BME280;10839;43.206;23.550;2023-03-20T08:23:29;97383.78;;;25.44;28.46
21361;BME280;10839;43.206;23.550;2023-03-20T08:25:55;97391.66;;;25.01;28.95
21361;BME280;10839;43.206;23.550;2023-03-20T08:28:22;97392.22;;;24.98;29.14
21361;BME280;10839;43.206;23.550;2023-03-20T08:30:48;97393.84;;;25.09;29.30
21361;BME280;10839;43.206;23.550;2023-03-20T08:33:15;97386.09;;;25.21;28.65
21361;BME280;10839;43.206;23.550;2023-03-20T08:35:42;97396.06;;;25.02;28.84
21361;BME280;10839;43.206;23.550;2023-03-20T08:38:11;97397.63;;;25.39;28.17
21361;BME280;10839;43.206;23.550;2023-03-20T08:40:41;97395.63;;;24.40;28.93
21361;BME280;10839;43.206;23.550;2023-03-20T08:43:07;97403.88;;;24.45;29.62
21361;BME280;10839;43.206;23.550;2023-03-20T08:45:33;97400.00;;;24.56;28.51
21361;BME280;10839;43.206;23.550;2023-03-20T08:47:58;97398.25;;;25.05;27.86
21361;BME280;10839;43.206;23.550;2023-03-20T08:50:24;97407.69;;;24.84;27.93
21361;BME280;10839;43.206;23.550;2023-03-20T08:52:50;97400.31;;;25.44;28.38
21361;BME280;10839;43.206;23.550;2023-03-20T08:55:16;97398.00;;;25.66;27.86
21361;BME280;10839;43.206;23.550;2023-03-20T08:57:42;97393.78;;;25.78;28.00
21361;BME280;10839;43.206;23.550;2023-03-20T09:00:10;97400.00;;;25.94;27.36
21361;BME280;10839;43.206;23.550;2023-03-20T09:02:37;97402.75;;;25.99;27.42
21361;BME280;10839;43.206;23.550;2023-03-20T09:05:03;97396.38;;;26.08;27.68
21361;BME280;10839;43.206;23.550;2023-03-20T09:07:29;97394.50;;;25.94;27.82
21361;BME280;10839;43.206;23.550;2023-03-20T09:09:55;97400.69;;;25.17;28.70
21361;BME280;10839;43.206;23.550;2023-03-20T09:12:21;97380.25;;;25.28;28.70
21361;BME280;10839;43.206;23.550;2023-03-20T09:14:47;97387.81;;;26.10;27.68
21361;BME280;10839;43.206;23.550;2023-03-20T09:17:13;97389.69;;;26.48;27.24
21361;BME280;10839;43.206;23.550;2023-03-20T09:19:39;97386.00;;;26.86;26.58
21361;BME280;10839;43.206;23.550;2023-03-20T09:22:12;97384.47;;;27.22;26.60
21361;BME280;10839;43.206;23.550;2023-03-20T09:24:38;97389.09;;;27.08;26.28
21361;BME280;10839;43.206;23.550;2023-03-20T09:27:04;97385.91;;;26.96;26.55
21361;BME280;10839;43.206;23.550;2023-03-20T09:29:30;97368.47;;;26.15;26.56
21361;BME280;10839;43.206;23.550;2023-03-20T09:31:56;97384.31;;;26.62;26.56
21361;BME280;10839;43.206;23.550;2023-03-20T09:34:22;97370.47;;;26.90;25.13
21361;BME280;10839;43.206;23.550;2023-03-20T09:36:49;97375.38;;;26.98;25.28
21361;BME280;10839;43.206;23.550;2023-03-20T09:39:16;97367.72;;;27.14;25.07
21361;BME280;10839;43.206;23.550;2023-03-20T09:41:47;97368.50;;;27.43;25.16
21361;BME280;10839;43.206;23.550;2023-03-20T09:44:40;97373.06;;;26.53;25.66
21361;BME280;10839;43.206;23.550;2023-03-20T09:48:01;97369.50;;;26.19;25.77
21361;BME280;10839;43.206;23.550;2023-03-20T09:50:42;97368.53;;;26.62;25.68
21361;BME280;10839;43.206;23.550;2023-03-20T09:53:21;97359.13;;;26.39;25.83
21361;BME280;10839;43.206;23.550;2023-03-20T09:55:51;97347.22;;;26.73;25.75
21361;BME280;10839;43.206;23.550;2023-03-20T09:58:33;97349.06;;;25.43;25.97
21361;BME280;10839;43.206;23.550;2023-03-20T10:01:04;97341.88;;;25.47;25.35
21361;BME280;10839;43.206;23.550;2023-03-20T10:06:14;97329.53;;;25.34;25.77
21361;BME280;10839;43.206;23.550;2023-03-20T10:08:41;97324.19;;;26.54;25.01
21361;BME280;10839;43.206;23.550;2023-03-20T10:18:48;97308.78;;;27.00;25.71
21361;BME280;10839;43.206;23.550;2023-03-20T10:21:28;97325.72;;;26.93;25.31
21361;BME280;10839;43.206;23.550;2023-03-20T10:24:05;97321.69;;;26.81;25.59
21361;BME280;10839;43.206;23.550;2023-03-20T10:26:35;97314.31;;;26.76;25.86
21361;BME280;10839;43.206;23.550;2023-03-20T10:29:17;97313.22;;;27.19;25.74
21361;BME280;10839;43.206;23.550;2023-03-20T10:32:23;97312.16;;;27.15;25.72
21361;BME280;10839;43.206;23.550;2023-03-20T10:35:11;97310.41;;;27.01;26.29
21361;BME280;10839;43.206;23.550;2023-03-20T10:40:31;97316.81;;;25.87;26.42
21361;BME280;10839;43.206;23.550;2023-03-20T10:43:27;97307.41;;;25.88;27.17
21361;BME280;10839;43.206;23.550;2023-03-20T10:45:58;97308.22;;;26.22;26.54
21361;BME280;10839;43.206;23.550;2023-03-20T10:48:32;97299.78;;;26.37;25.10
21361;BME280;10839;43.206;23.550;2023-03-20T10:51:02;97303.19;;;26.29;25.25
21361;BME280;10839;43.206;23.550;2023-03-20T10:53:36;97305.50;;;26.74;26.01
21361;BME280;10839;43.206;23.550;2023-03-20T10:56:11;97297.16;;;27.21;25.63
21361;BME280;10839;43.206;23.550;2023-03-20T10:58:40;97291.38;;;26.76;26.73
21361;BME280;10839;43.206;23.550;2023-03-20T11:01:07;97288.44;;;26.67;27.00
21361;BME280;10839;43.206;23.550;2023-03-20T11:03:33;97290.41;;;26.38;27.40
21361;BME280;10839;43.206;23.550;2023-03-20T11:06:06;97286.09;;;26.79;27.84
21361;BME280;10839;43.206;23.550;2023-03-20T11:08:39;97280.88;;;26.49;28.12
21361;BME280;10839;43.206;23.550;2023-03-20T11:11:07;97274.66;;;26.62;28.16
21361;BME280;10839;43.206;23.550;2023-03-20T11:13:43;97274.44;;;26.82;27.73
21361;BME280;10839;43.206;23.550;2023-03-20T11:16:14;97274.09;;;26.89;27.65
21361;BME280;10839;43.206;23.550;2023-03-20T11:18:41;97268.34;;;26.62;27.45
21361;BME280;10839;43.206;23.550;2023-03-20T11:21:14;97271.44;;;26.31;27.90
21361;BME280;10839;43.206;23.550;2023-03-20T11:23:40;97256.94;;;25.54;28.55
21361;BME280;10839;43.206;23.550;2023-03-20T11:26:13;97263.72;;;26.05;27.91
21361;BME280;10839;43.206;23.550;2023-03-20T11:31:30;97256.00;;;26.54;27.42
21361;BME280;10839;43.206;23.550;2023-03-20T11:36:36;97251.38;;;26.21;27.18
21361;BME280;10839;43.206;23.550;2023-03-20T11:39:09;97234.59;;;26.17;27.58
21361;BME280;10839;43.206;23.550;2023-03-20T11:41:52;97237.16;;;26.09;27.41
21361;BME280;10839;43.206;23.550;2023-03-20T11:44:22;97235.28;;;25.71;27.21
21361;BME280;10839;43.206;23.550;2023-03-20T11:47:05;97228.84;;;26.14;26.35
21361;BME280;10839;43.206;23.550;2023-03-20T11:49:48;97211.31;;;26.00;26.08
21361;BME280;10839;43.206;23.550;2023-03-20T11:52:24;97216.28;;;26.03;26.00
21361;BME280;10839;43.206;23.550;2023-03-20T11:54:57;97219.69;;;25.90;26.50
21361;BME280;10839;43.206;23.550;2023-03-20T12:00:23;97208.28;;;24.90;26.96
21361;BME280;10839;43.206;23.550;2023-03-20T12:02:50;97211.19;;;24.60;27.42
21361;BME280;10839;43.206;23.550;2023-03-20T12:05:28;97214.63;;;25.35;26.77
21361;BME280;10839;43.206;23.550;2023-03-20T12:08:02;97208.47;;;25.48;26.79
21361;BME280;10839;43.206;23.550;2023-03-20T12:10:41;97202.97;;;25.04;27.12
21361;BME280;10839;43.206;23.550;2023-03-20T12:13:30;97208.88;;;24.87;26.77
21361;BME280;10839;43.206;23.550;2023-03-20T12:16:15;97203.41;;;24.14;27.86
21361;BME280;10839;43.206;23.550;2023-03-20T12:18:50;97191.47;;;24.43;27.00
21361;BME280;10839;43.206;23.550;2023-03-20T12:21:25;97188.03;;;24.71;26.82
21361;BME280;10839;43.206;23.550;2023-03-20T12:23:58;97186.75;;;24.54;27.66
21361;BME280;10839;43.206;23.550;2023-03-20T12:26:34;97186.91;;;24.67;27.30
21361;BME280;10839;43.206;23.550;2023-03-20T12:32:20;97185.53;;;23.96;28.55
21361;BME280;10839;43.206;23.550;2023-03-20T12:34:55;97184.75;;;23.85;28.86
21361;BME280;10839;43.206;23.550;2023-03-20T12:37:23;97172.91;;;23.95;29.05
21361;BME280;10839;43.206;23.550;2023-03-20T12:39:58;97178.97;;;23.92;28.27
21361;BME280;10839;43.206;23.550;2023-03-20T12:43:23;97171.25;;;23.79;29.00
21361;BME280;10839;43.206;23.550;2023-03-20T12:45:32;97165.84;;;23.49;29.58
21361;BME280;10839;43.206;23.550;2023-03-20T12:48:41;97175.69;;;23.75;29.47
21361;BME280;10839;43.206;23.550;2023-03-20T12:51:18;97162.47;;;23.87;28.45
21361;BME280;10839;43.206;23.550;2023-03-20T12:59:41;97158.66;;;23.23;29.03
21361;BME280;10839;43.206;23.550;2023-03-20T13:08:01;97154.84;;;23.49;28.23
21361;BME280;10839;43.206;23.550;2023-03-20T13:10:43;97144.41;;;23.31;28.45
21361;BME280;10839;43.206;23.550;2023-03-20T13:21:13;97139.38;;;22.67;28.42
21361;BME280;10839;43.206;23.550;2023-03-20T13:29:43;97133.38;;;23.26;27.90
21361;BME280;10839;43.206;23.550;2023-03-20T13:35:02;97132.78;;;22.53;28.62
21361;BME280;10839;43.206;23.550;2023-03-20T13:37:32;97118.53;;;22.61;28.84
21361;BME280;10839;43.206;23.550;2023-03-20T13:40:23;97122.94;;;22.77;28.95
21361;BME280;10839;43.206;23.550;2023-03-20T13:45:38;97119.38;;;22.72;29.04
21361;BME280;10839;43.206;23.550;2023-03-20T13:56:28;97099.25;;;22.36;29.77
21361;BME280;10839;43.206;23.550;2023-03-20T14:04:24;97093.59;;;21.86;30.45
21361;BME280;10839;43.206;23.550;2023-03-20T14:06:54;97088.81;;;22.23;30.29
21361;BME280;10839;43.206;23.550;2023-03-20T14:09:31;97094.28;;;22.23;30.66
21361;BME280;10839;43.206;23.550;2023-03-20T14:12:01;97088.22;;;22.16;30.41
21361;BME280;10839;43.206;23.550;2023-03-20T14:14:38;97086.41;;;21.75;30.97
21361;BME280;10839;43.206;23.550;2023-03-20T14:19:40;97070.63;;;21.92;30.66
21361;BME280;10839;43.206;23.550;2023-03-20T14:22:17;97076.59;;;21.79;30.39
21361;BME280;10839;43.206;23.550;2023-03-20T14:25:08;97077.53;;;21.53;31.15
21361;BME280;10839;43.206;23.550;2023-03-20T14:27:55;97077.09;;;21.76;30.70
21361;BME280;10839;43.206;23.550;2023-03-20T14:32:59;97077.16;;;21.86;30.77
21361;BME280;10839;43.206;23.550;2023-03-20T14:35:41;97070.69;;;21.50;31.47
21361;BME280;10839;43.206;23.550;2023-03-20T14:46:39;97053.88;;;21.32;30.79
21361;BME280;10839;43.206;23.550;2023-03-20T14:55:32;97059.38;;;21.37;31.70
21361;BME280;10839;43.206;23.550;2023-03-20T14:58:39;97065.94;;;21.36;31.68
21361;BME280;10839;43.206;23.550;2023-03-20T15:04:03;97056.44;;;21.07;31.96
21361;BME280;10839;43.206;23.550;2023-03-20T15:06:32;97058.59;;;21.05;32.29
21361;BME280;10839;43.206;23.550;2023-03-20T15:11:27;97068.38;;;20.96;31.92
21361;BME280;10839;43.206;23.550;2023-03-20T15:13:54;97064.66;;;20.75;32.35
21361;BME280;10839;43.206;23.550;2023-03-20T15:16:31;97061.38;;;20.78;32.48
21361;BME280;10839;43.206;23.550;2023-03-20T15:18:58;97066.09;;;20.88;32.69
21361;BME280;10839;43.206;23.550;2023-03-20T15:21:32;97069.50;;;20.68;32.82
21361;BME280;10839;43.206;23.550;2023-03-20T15:23:58;97072.22;;;20.37;33.23
21361;BME280;10839;43.206;23.550;2023-03-20T15:26:27;97061.84;;;20.39;33.11
21361;BME280;10839;43.206;23.550;2023-03-20T15:29:06;97073.88;;;20.38;33.47
21361;BME280;10839;43.206;23.550;2023-03-20T15:31:35;97069.13;;;20.06;34.18
21361;BME280;10839;43.206;23.550;2023-03-20T15:34:07;97068.84;;;20.24;33.96